Flight Track Log - Related Links

Times and Time Zones

All times are in EDT time to prevent confusion due to time zone crossing. See the RPA3159 flight status page for this flight to view local times or setup timezone preferences in your user account.


Time Position Orientation Groundspeed Altitude Reporting Facility
EDT Latitude Longitude Course Direction KTS MPH feet Rate Location/Type
Thu 12:23:00 PM 44.2016 -73.2500 180° South  Level FlightAware Approximate
Thu 12:24:00 PM 44.1127 -73.2828 195° South  Level FlightAware Approximate
Thu 12:24:42 PM 44.3019 -73.3044 198° South 296 341 9,400  Level Boston Center
Thu 12:25:00 PM 44.0234 -73.3144 194° South  Level FlightAware Approximate
Thu 12:25:42 PM 44.2119 -73.3322 192° South 302 348 11,500  Level Boston Center
Thu 12:26:00 PM 43.9339 -73.3443 193° South  Level FlightAware Approximate
Thu 12:26:42 PM 44.1344 -73.3831 205° Southwest 307 353 13,600  Level Boston Center
Thu 12:27:00 PM 43.8358 -73.3804 195° South  Level FlightAware Approximate
Thu 12:27:42 PM 44.0569 -73.4453 210° Southwest 320 368 15,600  Level Boston Center
Thu 12:28:00 PM 43.7379 -73.4171 195° South  Level FlightAware Approximate
Thu 12:28:42 PM 43.9814 -73.5106 212° Southwest 325 374 17,400  Level Boston Center
Thu 12:29:00 PM 43.6402 -73.4545 198° South  Level FlightAware Approximate
Thu 12:29:42 PM 43.8994 -73.5781 211° Southwest 335 386 19,100  Level Boston Center
Thu 12:30:00 PM 43.5438 -73.4983 198° South  Level FlightAware Approximate
Thu 12:30:42 PM 43.8194 -73.6458 211° Southwest 341 392 20,900  Level Boston Center
Thu 12:31:42 PM 43.7356 -73.7131 210° Southwest 341 392 22,200 1,318 Climbing Boston Center
Thu 12:32:54 PM 43.6533 -73.7803 211° Southwest 341 392 23,800 1,500 Climbing Boston Center
Thu 12:33:54 PM 43.5525 -73.8611 210° Southwest 341 392 25,500 1,100 Climbing Boston Center
Thu 12:34:54 PM 43.4703 -73.9278 210° Southwest 341 392 26,000 250 Climbing Boston Center
Thu 12:35:54 PM 43.4028 -73.9803 209° Southwest 341 392 26,000  Level Boston Center
Thu 12:36:54 PM 43.3100 -74.0581 211° Southwest 346 398 26,000  Level Boston Center
Thu 12:37:54 PM 43.2258 -74.1269 211° Southwest 346 398 26,000  Level Boston Center
Thu 12:38:54 PM 43.1433 -74.1931 210° Southwest 346 398 26,000  Level Boston Center
Thu 12:39:54 PM 43.0589 -74.2617 211° Southwest 346 398 26,000  Level Boston Center
Thu 12:41:06 PM 42.9744 -74.3272 210° Southwest 346 398 26,000  Level Boston Center
Thu 12:42:06 PM 42.8708 -74.4147 212° Southwest 353 406 26,000  Level Boston Center
Thu 12:43:06 PM 42.8075 -74.4664 211° Southwest 358 412 26,000  Level Boston Center
Thu 12:44:06 PM 42.7039 -74.5478 210° Southwest 363 418 26,000  Level Boston Center
Thu 12:45:06 PM 42.6150 -74.6181 210° Southwest 368 423 26,000  Level Boston Center
Thu 12:46:06 PM 42.5303 -74.6856 210° Southwest 368 423 26,000 -50 Level Boston Center
Thu 12:47:06 PM 42.4436 -74.7528 210° Southwest 368 423 25,900 -955 Descending Boston Center
Thu 12:48:18 PM 42.3525 -74.8225 209° Southwest 362 417 23,900 -1,773 Descending Boston Center
Thu 12:49:18 PM 42.2547 -74.9031 211° Southwest 357 411 22,000 -1,403 Descending Boston Center
Thu 12:51:39 PM 42.0606 -75.0531 210° Southwest 346 398 19,200 -891 Descending New York Center
Thu 12:52:40 PM 41.9811 -75.1233 213° Southwest 346 398 19,000 -99 Descending New York Center
Thu 12:53:40 PM 41.9017 -75.1878 211° Southwest 346 398 19,000  Level New York Center
Thu 12:54:41 PM 41.8286 -75.2469 211° Southwest 353 406 19,000 -496 Level New York Center
Thu 12:55:41 PM 41.7469 -75.3136 211° Southwest 348 400 18,000 -1,373 Descending New York Center
Thu 12:56:39 PM 41.6589 -75.3825 210° Southwest 348 400 16,300 -1,613 Descending New York Center
Thu 12:57:40 PM 41.5794 -75.4464 211° Southwest 348 400 14,800 -1,587 Descending New York Center
Thu 12:58:40 PM 41.5019 -75.5103 212° Southwest 348 400 13,100 -1,388 Descending New York Center
Thu 12:59:41 PM 41.4331 -75.5636 210° Southwest 338 389 12,000 -555 Descending New York Center
Thu 01:00:39 PM 41.3469 -75.6319 211° Southwest 333 383 12,000  Level New York Center
Thu 01:01:39 PM 41.2656 -75.6842 206° Southwest 333 383 12,000  Level New York Center
Thu 01:02:40 PM 41.1739 -75.6886 182° South 326 375 12,000 -246 Level New York Center
Thu 01:03:41 PM 41.0822 -75.6900 181° South 337 388 11,500 -958 Descending New York Center
Thu 01:04:39 PM 40.9933 -75.6728 172° South 332 382 10,100 -756 Descending New York Center
Thu 01:05:40 PM 40.9094 -75.6364 162° South 315 362 10,000 -50 Descending New York Center
Thu 01:06:39 PM 40.8253 -75.6003 162° South 315 362 10,000  Level New York Center
Thu 01:07:39 PM 40.7475 -75.5647 161° South 321 369 10,000  Level New York Center
Thu 01:08:39 PM 40.6617 -75.5258 161° South 321 369 10,000  Level New York Center
Thu 01:09:40 PM 40.5717 -75.4867 162° South 316 364 10,000 -295 Level New York Center
Thu 01:10:41 PM 40.4917 -75.4511 161° South 316 364 9,400 -605 Descending New York Center
Thu 01:11:39 PM 40.4222 -75.4167 159° South 306 352 8,800 -1,059 Descending New York Center
Thu 01:12:40 PM 40.3386 -75.3672 156° South 300 345 7,300 -934 Descending New York Center
Thu 01:13:41 PM 40.2633 -75.3242 156° South 294 338 6,900 -655 Descending New York Center
Thu 01:14:39 PM 40.1878 -75.2839 158° South 295 339 6,000 -454 Descending New York Center
Thu 01:15:40 PM 40.1142 -75.2411 156° South 296 341 6,000  Level New York Center
Thu 01:16:27 PM 40.0500 -75.2000 154° Southeast 282 325 6,000  Level Philadelphia TRACON
Thu 01:17:27 PM 40.0000 -75.1833 166° South 221 254 6,000  Level Philadelphia TRACON
Thu 01:18:22 PM 39.9833 -75.1167 108° East 209 241 6,000 -52 Level Philadelphia TRACON
Thu 01:19:22 PM 40.0000 -75.0333 75° East 210 242 5,900 -700 Descending Philadelphia TRACON
Thu 01:20:22 PM 40.0167 -74.9833 66° East 188 216 4,600 -950 Descending Philadelphia TRACON
Thu 01:21:22 PM 39.9667 -74.9500 153° Southeast 183 211 4,000 -300 Descending Philadelphia TRACON
Thu 01:22:22 PM 39.9333 -74.9333 159° South 194 223 4,000  Level Philadelphia TRACON
Thu 01:23:22 PM 39.9333 -74.8667 90° East 190 219 4,000 -500 Level Philadelphia TRACON
Thu 01:24:22 PM 39.9500 -74.9167 294° West 183 211 3,000 -500 Descending Philadelphia TRACON
Thu 01:25:22 PM 39.9167 -74.9833 237° Southwest 184 212 3,000  Level Philadelphia TRACON

Login

Don't have an account? Register now (free) for customized features, flight alerts, and more!